createdAt,value
2019-02-06T00:01:17.973Z,95.80
2019-02-06T00:03:48.808Z,81.03
2019-02-06T00:06:19.689Z,150.87
2019-02-06T00:08:50.161Z,106.43
2019-02-06T00:11:21.008Z,87.67
2019-02-06T00:13:51.551Z,117.23
2019-02-06T00:16:22.112Z,140.07
2019-02-06T00:18:52.551Z,126.67
2019-02-06T00:21:23.317Z,127.90
2019-02-06T00:23:53.805Z,118.50
2019-02-06T00:26:24.207Z,101.23
2019-02-06T00:28:54.633Z,118.57
2019-02-06T00:31:25.454Z,165.87
2019-02-06T00:33:55.971Z,103.83
2019-02-06T00:36:26.391Z,128.47
2019-02-06T00:38:56.821Z,101.37
2019-02-06T00:41:27.227Z,114.73
2019-02-06T00:43:57.698Z,105.73
2019-02-06T00:46:28.545Z,155.80
2019-02-06T00:48:59.305Z,112.27
2019-02-06T00:51:29.975Z,113.87
2019-02-06T00:54:00.325Z,98.97
2019-02-06T00:56:30.924Z,89.23
2019-02-06T00:59:01.353Z,132.87
2019-02-06T01:01:32.222Z,93.73
2019-02-06T01:04:02.564Z,96.47
2019-02-06T01:06:33.093Z,101.40
2019-02-06T01:09:03.671Z,96.17
2019-02-06T01:11:34.807Z,95.43
2019-02-06T01:14:05.677Z,91.33
2019-02-06T01:16:36.188Z,93.73
2019-02-06T01:19:06.936Z,111.53
2019-02-06T01:21:37.721Z,105.53
2019-02-06T01:24:08.204Z,89.90
2019-02-06T01:26:38.627Z,90.13
2019-02-06T01:29:09.657Z,79.83
2019-02-06T01:31:40.239Z,82.67
2019-02-06T01:34:10.929Z,79.07
2019-02-06T01:36:41.328Z,89.37
2019-02-06T01:39:14.043Z,119.63
2019-02-06T01:41:44.628Z,124.13
2019-02-06T01:44:15.113Z,91.63
2019-02-06T01:46:45.513Z,83.03
2019-02-06T01:49:15.959Z,132.53
2019-02-06T01:51:46.369Z,77.87
2019-02-06T01:54:16.642Z,87.10
2019-02-06T01:56:47.088Z,142.00
2019-02-06T01:59:17.390Z,177.37
2019-02-06T02:01:48.094Z,84.70
2019-02-06T02:04:18.580Z,105.80
2019-02-06T02:06:50.688Z,93.27
2019-02-06T02:09:21.318Z,90.03
2019-02-06T02:11:51.851Z,178.97
2019-02-06T02:14:22.710Z,141.90
2019-02-06T02:16:53.059Z,112.10
2019-02-06T02:19:23.519Z,91.30
2019-02-06T02:21:53.886Z,86.83
2019-02-06T02:24:24.325Z,90.73
2019-02-06T02:26:54.788Z,101.27
2019-02-06T02:29:25.589Z,87.97
2019-02-06T02:31:56.252Z,75.30
2019-02-06T02:34:27.351Z,73.13
2019-02-06T02:36:57.950Z,99.93
2019-02-06T02:39:28.710Z,84.10
2019-02-06T02:41:59.626Z,82.47
2019-02-06T02:44:29.936Z,80.70
2019-02-06T02:47:00.630Z,83.40
2019-02-06T02:49:31.002Z,81.80
2019-02-06T02:52:01.395Z,69.53
2019-02-06T02:54:31.938Z,73.27
2019-02-06T02:57:02.537Z,80.30
2019-02-06T02:59:32.932Z,76.10
2019-02-06T03:02:12.819Z,89.93
2019-02-06T03:04:51.089Z,70.60
2019-02-06T03:07:21.940Z,76.33
2019-02-06T03:09:52.610Z,73.83
2019-02-06T03:12:23.259Z,80.70
2019-02-06T03:14:54.060Z,81.63
2019-02-06T03:17:24.465Z,81.73
2019-02-06T03:19:54.852Z,79.73
2019-02-06T03:22:25.248Z,146.90
2019-02-06T03:24:55.592Z,125.40
2019-02-06T03:27:26.284Z,72.13
2019-02-06T03:29:56.814Z,70.20
2019-02-06T03:32:27.617Z,71.03
2019-02-06T03:34:58.279Z,77.07
2019-02-06T03:37:29.032Z,69.80
2019-02-06T03:39:59.437Z,97.23
2019-02-06T03:42:30.060Z,71.63
2019-02-06T03:45:00.557Z,68.43
2019-02-06T03:47:31.297Z,86.17
2019-02-06T03:50:01.714Z,67.90
2019-02-06T03:52:32.120Z,72.23
2019-02-06T03:55:02.578Z,76.53
2019-02-06T03:57:32.960Z,97.17
2019-02-06T04:00:03.407Z,72.90
2019-02-06T04:02:34.163Z,73.60
2019-02-06T04:05:05.322Z,73.27
2019-02-06T04:07:35.857Z,79.57
2019-02-06T04:10:08.019Z,79.40
2019-02-06T04:12:38.416Z,76.27
2019-02-06T04:15:09.972Z,82.00
2019-02-06T04:17:40.437Z,77.03
2019-02-06T04:20:11.978Z,78.63
2019-02-06T04:22:42.558Z,73.70
2019-02-06T04:25:14.213Z,72.37
2019-02-06T04:27:44.701Z,73.30
2019-02-06T04:30:16.118Z,76.33
2019-02-06T04:32:46.890Z,64.07
2019-02-06T04:35:17.444Z,69.97
2019-02-06T04:37:48.058Z,70.03
2019-02-06T04:40:19.734Z,78.47
2019-02-06T04:42:50.775Z,65.30
2019-02-06T04:45:21.242Z,66.50
2019-02-06T04:47:51.523Z,77.93
2019-02-06T04:50:21.982Z,71.70
2019-02-06T04:52:52.404Z,60.40
2019-02-06T04:55:22.869Z,77.97
2019-02-06T04:57:53.244Z,68.53
2019-02-06T05:00:25.719Z,77.97
2019-02-06T05:02:56.203Z,75.27
2019-02-06T05:05:26.639Z,55.17
2019-02-06T05:07:56.964Z,57.47
2019-02-06T05:10:27.769Z,81.97
2019-02-06T05:12:58.148Z,66.60
2019-02-06T05:15:29.375Z,72.37
2019-02-06T05:17:59.716Z,85.67
2019-02-06T05:20:39.140Z,61.07
2019-02-06T05:23:10.978Z,72.50
2019-02-06T05:25:41.563Z,68.40
2019-02-06T05:28:11.922Z,70.37
2019-02-06T05:30:42.338Z,71.10
2019-02-06T05:33:12.677Z,65.57
2019-02-06T05:35:43.158Z,76.33
2019-02-06T05:38:13.466Z,69.23
2019-02-06T05:40:44.031Z,62.07
2019-02-06T05:43:14.413Z,58.50
2019-02-06T05:45:45.087Z,90.23
2019-02-06T05:48:15.934Z,74.87
2019-02-06T05:50:46.417Z,71.87
2019-02-06T05:53:17.162Z,65.07
2019-02-06T05:55:47.671Z,79.33
2019-02-06T05:58:18.032Z,69.27
2019-02-06T06:00:49.930Z,60.33
2019-02-06T06:03:20.387Z,66.07
2019-02-06T06:05:51.553Z,63.37
2019-02-06T06:08:22.004Z,62.23
2019-02-06T06:10:52.485Z,78.70
2019-02-06T06:13:22.983Z,71.03
2019-02-06T06:15:53.728Z,79.63
2019-02-06T06:18:24.463Z,68.50
2019-02-06T06:20:55.304Z,92.47
2019-02-06T06:23:25.810Z,93.00
2019-02-06T06:25:56.215Z,89.30
2019-02-06T06:28:26.683Z,76.13
2019-02-06T06:30:57.627Z,74.93
2019-02-06T06:33:27.985Z,82.23
2019-02-06T06:35:58.474Z,73.17
2019-02-06T06:38:29.385Z,90.77
2019-02-06T06:40:59.935Z,79.27
2019-02-06T06:43:30.454Z,72.47
2019-02-06T06:46:01.243Z,60.77
2019-02-06T06:48:32.243Z,58.13
2019-02-06T06:51:02.721Z,80.27
2019-02-06T06:53:33.549Z,69.70
2019-02-06T06:56:04.050Z,65.37
2019-02-06T06:58:34.628Z,70.37
2019-02-06T07:01:05.219Z,63.23
2019-02-06T07:03:35.466Z,47.63
2019-02-06T07:06:06.314Z,63.00
2019-02-06T07:08:37.084Z,58.90
2019-02-06T07:11:07.586Z,66.83
2019-02-06T07:13:37.810Z,61.90
2019-02-06T07:16:09.942Z,62.97
2019-02-06T07:18:40.285Z,55.17
2019-02-06T07:21:10.732Z,61.00
2019-02-06T07:23:41.602Z,65.30
2019-02-06T07:26:12.210Z,114.63
2019-02-06T07:28:42.411Z,74.00
2019-02-06T07:31:12.731Z,69.57
2019-02-06T07:33:43.516Z,133.93
2019-02-06T07:36:13.882Z,155.00
2019-02-06T07:38:44.241Z,77.87
2019-02-06T07:41:14.661Z,88.03
2019-02-06T07:43:45.353Z,65.00
2019-02-06T07:46:15.764Z,60.10
2019-02-06T07:48:46.166Z,69.87
2019-02-06T07:51:16.423Z,73.50
2019-02-06T07:53:47.021Z,64.20
2019-02-06T07:56:17.422Z,70.13
2019-02-06T07:58:50.689Z,62.20
2019-02-06T08:01:20.068Z,69.80
2019-02-06T08:03:50.448Z,64.47
2019-02-06T08:06:20.984Z,92.83
2019-02-06T08:08:51.485Z,62.73
2019-02-06T08:11:22.356Z,80.13
2019-02-06T08:13:52.748Z,63.70
2019-02-06T08:16:23.513Z,72.30
2019-02-06T08:18:54.272Z,71.07
2019-02-06T08:21:24.508Z,53.63
2019-02-06T08:23:55.176Z,55.13
2019-02-06T08:26:26.001Z,56.40
2019-02-06T08:28:56.720Z,59.93
2019-02-06T08:31:27.073Z,58.50
2019-02-06T08:33:57.595Z,51.27
2019-02-06T08:36:28.035Z,86.13
2019-02-06T08:38:58.663Z,54.97
2019-02-06T08:41:28.972Z,62.60
2019-02-06T08:44:01.749Z,64.93
2019-02-06T08:46:31.367Z,55.60
2019-02-06T08:49:02.077Z,50.20
2019-02-06T08:51:32.445Z,52.80
2019-02-06T08:54:02.616Z,51.53
2019-02-06T08:56:33.752Z,53.37
2019-02-06T08:59:05.010Z,53.00
2019-02-06T09:01:35.879Z,46.27
2019-02-06T09:04:06.278Z,53.97
2019-02-06T09:06:36.878Z,50.63
2019-02-06T09:09:12.214Z,51.10
2019-02-06T09:11:42.681Z,45.87
2019-02-06T09:14:13.110Z,46.43
2019-02-06T09:16:43.780Z,51.57
2019-02-06T09:19:14.443Z,52.47
2019-02-06T09:21:44.781Z,42.13
2019-02-06T09:24:15.961Z,46.97
2019-02-06T09:26:46.679Z,48.77
2019-02-06T09:29:17.190Z,47.33
2019-02-06T09:31:47.537Z,43.97
2019-02-06T09:34:18.080Z,40.73
2019-02-06T09:36:48.384Z,43.10
2019-02-06T09:39:18.786Z,46.30
2019-02-06T09:41:49.408Z,56.73
2019-02-06T09:44:19.843Z,48.43
2019-02-06T09:46:50.178Z,39.60
2019-02-06T09:49:20.531Z,49.67
2019-02-06T09:51:50.904Z,42.67
2019-02-06T09:54:21.483Z,49.03
2019-02-06T09:56:53.012Z,46.67
2019-02-06T09:59:23.227Z,52.67
2019-02-06T10:01:54.184Z,50.97
2019-02-06T10:04:24.605Z,51.47
2019-02-06T10:06:54.999Z,44.37
2019-02-06T10:09:25.263Z,48.30
2019-02-06T10:11:55.491Z,43.50
2019-02-06T10:14:26.219Z,55.03
2019-02-06T10:16:56.843Z,47.53
2019-02-06T10:19:27.163Z,53.87
2019-02-06T10:21:57.698Z,53.77
2019-02-06T10:24:27.906Z,48.47
2019-02-06T10:26:58.318Z,55.80
2019-02-06T10:29:28.672Z,51.90
2019-02-06T10:31:59.504Z,54.67
2019-02-06T10:34:29.878Z,50.47
2019-02-06T10:37:00.219Z,50.33
2019-02-06T10:39:34.596Z,56.17
2019-02-06T10:42:02.653Z,52.03
2019-02-06T10:44:33.292Z,52.63
2019-02-06T10:47:03.778Z,52.37
2019-02-06T10:49:34.389Z,58.43
2019-02-06T10:52:04.853Z,56.27
2019-02-06T10:54:35.091Z,53.17
2019-02-06T10:57:05.739Z,56.70
2019-02-06T10:59:35.933Z,57.23
2019-02-06T11:02:07.421Z,52.10
2019-02-06T11:04:37.749Z,48.57
2019-02-06T11:07:08.374Z,48.23
2019-02-06T11:09:46.180Z,53.83
2019-02-06T11:12:11.335Z,57.93
2019-02-06T11:14:41.841Z,58.90
2019-02-06T11:17:12.169Z,55.30
2019-02-06T11:19:43.298Z,58.77
2019-02-06T11:22:13.761Z,54.70
2019-02-06T11:24:44.155Z,57.90
2019-02-06T11:27:15.145Z,52.90
2019-02-06T11:29:48.238Z,55.27
2019-02-06T11:32:17.552Z,59.17
2019-02-06T11:34:47.886Z,55.07
2019-02-06T11:37:18.209Z,56.63
2019-02-06T11:39:57.590Z,61.77
2019-02-06T11:42:20.967Z,62.50
2019-02-06T11:44:51.419Z,57.43
2019-02-06T11:47:22.097Z,57.57
2019-02-06T11:49:54.856Z,56.17
2019-02-06T11:52:26.147Z,53.30
2019-02-06T11:54:56.612Z,58.50
2019-02-06T11:57:27.054Z,57.40
2019-02-06T11:59:57.701Z,55.13
2019-02-06T12:02:36.961Z,58.73
2019-02-06T12:05:00.320Z,61.07
2019-02-06T12:07:30.806Z,58.53
2019-02-06T12:10:09.434Z,61.40
2019-02-06T12:12:33.258Z,62.90
2019-02-06T12:15:03.676Z,60.00
2019-02-06T12:17:34.156Z,64.17
2019-02-06T12:20:07.238Z,65.00
2019-02-06T12:22:37.984Z,53.53
2019-02-06T12:25:09.896Z,55.17
2019-02-06T12:27:40.377Z,62.87
2019-02-06T12:30:27.478Z,56.40
2019-02-06T12:32:58.070Z,58.63
2019-02-06T12:35:28.914Z,56.70
2019-02-06T12:37:59.480Z,54.63
2019-02-06T12:40:31.083Z,60.40
2019-02-06T12:43:01.572Z,58.40
2019-02-06T12:45:32.034Z,58.20
2019-02-06T12:48:02.268Z,59.33
2019-02-06T12:50:32.677Z,64.33
2019-02-06T12:53:03.340Z,56.27
2019-02-06T12:55:35.727Z,60.07
2019-02-06T12:58:07.281Z,60.27
2019-02-06T13:00:39.876Z,58.43
2019-02-06T13:03:10.645Z,62.37
2019-02-06T13:05:41.183Z,61.60
2019-02-06T13:08:11.601Z,66.83
2019-02-06T13:10:42.196Z,58.27
2019-02-06T13:13:12.613Z,62.53
2019-02-06T13:15:43.095Z,65.53
2019-02-06T13:18:13.305Z,57.77
2019-02-06T13:20:43.684Z,63.70
2019-02-06T13:23:14.003Z,59.40
2019-02-06T13:25:44.328Z,59.93
2019-02-06T13:28:15.332Z,63.77
2019-02-06T13:30:45.747Z,66.17
2019-02-06T13:33:16.129Z,67.13
2019-02-06T13:35:46.807Z,62.90
2019-02-06T13:38:17.244Z,61.93
2019-02-06T13:40:47.717Z,65.77
2019-02-06T13:43:18.040Z,63.07
2019-02-06T13:45:49.400Z,62.37
2019-02-06T13:48:19.859Z,58.43
2019-02-06T13:50:50.342Z,72.20
2019-02-06T13:53:20.724Z,58.13
2019-02-06T13:55:51.515Z,65.93
2019-02-06T13:58:22.255Z,68.93
2019-02-06T14:00:52.979Z,73.33
2019-02-06T14:03:23.260Z,69.80
2019-02-06T14:05:53.667Z,73.80
2019-02-06T14:08:24.045Z,73.10
2019-02-06T14:11:00.273Z,65.20
2019-02-06T14:13:26.525Z,70.67
2019-02-06T14:15:56.988Z,68.67
2019-02-06T14:18:27.481Z,72.57
2019-02-06T14:20:57.829Z,67.30
2019-02-06T14:23:48.443Z,73.83
2019-02-06T14:26:34.237Z,66.63
2019-02-06T14:30:08.595Z,73.63
2019-02-06T14:33:12.222Z,71.90
2019-02-06T14:36:55.434Z,66.73
2019-02-06T14:39:52.610Z,66.07
2019-02-06T14:42:49.965Z,70.53
2019-02-06T14:46:31.198Z,78.53
2019-02-06T14:49:43.748Z,72.93
2019-02-06T14:52:59.959Z,73.47
2019-02-06T14:56:02.860Z,72.57
2019-02-06T14:59:51.310Z,79.00
2019-02-06T15:03:01.508Z,82.93
2019-02-06T15:06:37.950Z,70.33
2019-02-06T15:10:04.717Z,81.57
2019-02-06T15:13:42.856Z,74.90
2019-02-06T15:17:08.494Z,76.47
2019-02-06T15:20:19.966Z,82.47
2019-02-06T15:24:01.583Z,80.00
2019-02-06T15:27:15.502Z,83.77
2019-02-06T15:30:39.223Z,78.13
2019-02-06T15:33:55.041Z,89.03
2019-02-06T15:37:04.491Z,90.67
2019-02-06T15:40:27.347Z,81.80
2019-02-06T15:43:43.523Z,91.10
2019-02-06T15:47:00.825Z,97.57
2019-02-06T15:50:03.821Z,84.90
2019-02-06T15:53:16.216Z,87.83
2019-02-06T15:56:52.435Z,86.47
2019-02-06T16:00:13.013Z,87.80
2019-02-06T16:03:24.252Z,94.07
2019-02-06T16:06:40.338Z,92.63
2019-02-06T16:09:51.430Z,99.40
2019-02-06T16:13:07.436Z,100.50
2019-02-06T16:16:31.554Z,98.43
2019-02-06T16:20:04.997Z,102.73
2019-02-06T16:22:57.261Z,101.07
2019-02-06T16:26:42.926Z,89.00
2019-02-06T16:30:12.894Z,99.63
2019-02-06T16:33:52.551Z,91.63
2019-02-06T16:37:21.941Z,91.03
2019-02-06T16:40:51.918Z,92.83
2019-02-06T16:44:21.446Z,92.73
2019-02-06T16:47:45.630Z,92.20
2019-02-06T16:51:01.930Z,100.73
2019-02-06T16:54:07.406Z,82.83
2019-02-06T16:57:39.590Z,90.13
2019-02-06T17:00:54.104Z,78.63
2019-02-06T17:04:17.087Z,81.47
2019-02-06T17:07:32.276Z,75.03
2019-02-06T17:11:39.148Z,83.13
2019-02-06T17:15:08.022Z,83.03
2019-02-06T17:18:09.343Z,80.27
2019-02-06T17:21:33.190Z,91.43
2019-02-06T17:24:47.291Z,79.80
2019-02-06T17:28:20.109Z,90.47
2019-02-06T17:31:55.833Z,83.37
2019-02-06T17:35:22.480Z,67.43
2019-02-06T17:38:50.748Z,77.90
2019-02-06T17:42:01.588Z,72.97
2019-02-06T17:45:17.987Z,73.80
2019-02-06T17:48:59.449Z,76.80
2019-02-06T17:52:27.016Z,64.20
2019-02-06T17:55:21.228Z,72.70
2019-02-06T17:57:55.300Z,81.50
2019-02-06T18:00:52.923Z,86.23
2019-02-06T18:03:23.906Z,78.50
2019-02-06T18:05:54.754Z,81.97
2019-02-06T18:08:25.129Z,79.00
2019-02-06T18:10:55.476Z,78.13
2019-02-06T18:13:25.793Z,72.83
2019-02-06T18:15:56.149Z,66.43
2019-02-06T18:18:27.007Z,58.77
2019-02-06T18:20:57.656Z,65.57
2019-02-06T18:23:28.023Z,68.93
2019-02-06T18:25:58.305Z,81.30
2019-02-06T18:28:28.604Z,70.83
2019-02-06T18:30:59.023Z,82.13
2019-02-06T18:33:30.940Z,72.67
2019-02-06T18:36:01.215Z,72.30
2019-02-06T18:38:32.244Z,70.13
2019-02-06T18:41:02.776Z,62.77
2019-02-06T18:43:33.191Z,70.43
2019-02-06T18:46:03.839Z,75.90
2019-02-06T18:48:34.299Z,72.17
2019-02-06T18:51:05.978Z,76.80
2019-02-06T18:53:36.251Z,65.93
2019-02-06T18:56:06.945Z,72.67
2019-02-06T18:58:37.372Z,75.23
2019-02-06T19:01:08.330Z,74.13
2019-02-06T19:03:43.118Z,70.97
2019-02-06T19:06:13.938Z,75.50
2019-02-06T19:08:44.371Z,76.33
2019-02-06T19:11:14.780Z,70.53
2019-02-06T19:13:45.066Z,68.83
2019-02-06T19:16:15.431Z,61.30
2019-02-06T19:18:45.715Z,71.87
2019-02-06T19:21:16.464Z,85.50
2019-02-06T19:23:47.175Z,66.73
2019-02-06T19:26:17.482Z,70.27
2019-02-06T19:28:47.688Z,62.93
2019-02-06T19:31:18.082Z,72.17
2019-02-06T19:33:48.405Z,72.90
2019-02-06T19:36:19.096Z,74.70
2019-02-06T19:38:49.341Z,80.40
2019-02-06T19:41:20.046Z,77.07
2019-02-06T19:43:50.791Z,79.13
2019-02-06T19:46:21.294Z,74.70
2019-02-06T19:48:51.908Z,70.93
2019-02-06T19:51:22.221Z,80.67
2019-02-06T19:53:52.524Z,71.93
2019-02-06T19:56:22.928Z,90.10
2019-02-06T19:58:53.272Z,77.07
2019-02-06T20:01:24.026Z,73.67
2019-02-06T20:03:54.246Z,77.20
2019-02-06T20:06:31.994Z,78.50
2019-02-06T20:09:11.507Z,83.97
2019-02-06T20:11:42.042Z,82.57
2019-02-06T20:14:12.397Z,72.90
2019-02-06T20:16:42.718Z,81.00
2019-02-06T20:19:13.403Z,82.70
2019-02-06T20:21:43.980Z,76.53
2019-02-06T20:24:14.403Z,71.27
2019-02-06T20:26:44.932Z,86.27
2019-02-06T20:29:15.320Z,67.67
2019-02-06T20:31:45.680Z,71.67
2019-02-06T20:34:15.909Z,68.10
2019-02-06T20:36:46.515Z,69.57
2019-02-06T20:39:16.920Z,66.90
2019-02-06T20:41:47.777Z,72.17
2019-02-06T20:44:18.116Z,78.70
2019-02-06T20:46:48.768Z,74.90
2019-02-06T20:49:19.575Z,75.27
2019-02-06T20:51:50.128Z,75.93
2019-02-06T20:54:20.389Z,73.27
2019-02-06T20:56:50.605Z,72.33
2019-02-06T20:59:20.807Z,76.60
2019-02-06T21:01:51.055Z,79.47
2019-02-06T21:04:21.498Z,82.37
2019-02-06T21:06:52.109Z,105.60
2019-02-06T21:09:22.685Z,81.10
2019-02-06T21:11:52.839Z,83.83
2019-02-06T21:14:22.966Z,83.80
2019-02-06T21:16:53.508Z,82.73
2019-02-06T21:19:24.205Z,77.13
2019-02-06T21:21:54.858Z,72.03
2019-02-06T21:24:25.070Z,74.00
2019-02-06T21:26:55.566Z,80.63
2019-02-06T21:29:25.856Z,67.13
2019-02-06T21:31:56.096Z,74.30
2019-02-06T21:34:26.406Z,67.40
2019-02-06T21:36:56.571Z,68.10
2019-02-06T21:39:26.835Z,77.63
2019-02-06T21:41:57.298Z,68.03
2019-02-06T21:44:27.664Z,64.43
2019-02-06T21:46:57.863Z,78.20
2019-02-06T21:49:28.603Z,60.87
2019-02-06T21:51:59.289Z,75.27
2019-02-06T21:54:29.964Z,68.70
2019-02-06T21:57:00.372Z,79.53
2019-02-06T21:59:30.709Z,67.50
2019-02-06T22:02:01.016Z,76.50
2019-02-06T22:04:31.162Z,78.77
2019-02-06T22:07:01.560Z,71.57
2019-02-06T22:09:32.100Z,72.13
2019-02-06T22:12:02.451Z,77.33
2019-02-06T22:14:56.428Z,73.70
2019-02-06T22:17:26.748Z,80.93
2019-02-06T22:19:57.332Z,85.37
2019-02-06T22:22:27.654Z,77.40
2019-02-06T22:24:58.272Z,75.80
2019-02-06T22:27:28.661Z,80.50
2019-02-06T22:29:59.179Z,72.43
2019-02-06T22:32:29.646Z,87.93
2019-02-06T22:35:00.197Z,81.57
2019-02-06T22:37:30.848Z,82.63
2019-02-06T22:40:01.512Z,80.53
2019-02-06T22:42:31.869Z,78.73
2019-02-06T22:45:02.257Z,80.80
2019-02-06T22:47:32.869Z,82.50
2019-02-06T22:50:03.309Z,77.17
2019-02-06T22:52:33.737Z,83.77
2019-02-06T22:55:04.836Z,83.07
2019-02-06T22:57:36.144Z,84.17
2019-02-06T23:00:46.855Z,76.17
2019-02-06T23:03:28.349Z,71.43
2019-02-06T23:05:58.820Z,77.77
2019-02-06T23:08:29.238Z,87.90
2019-02-06T23:10:59.923Z,81.60
2019-02-06T23:13:30.404Z,75.20
2019-02-06T23:16:00.821Z,73.93
2019-02-06T23:18:31.449Z,97.37
2019-02-06T23:21:02.097Z,76.37
2019-02-06T23:23:32.788Z,80.27
2019-02-06T23:26:03.274Z,80.20
2019-02-06T23:28:33.991Z,79.63
2019-02-06T23:31:04.422Z,78.30
2019-02-06T23:33:34.876Z,77.27
2019-02-06T23:36:06.054Z,76.67
2019-02-06T23:38:36.586Z,70.50
2019-02-06T23:41:07.037Z,83.90
2019-02-06T23:43:37.526Z,86.93
2019-02-06T23:46:08.479Z,72.40
2019-02-06T23:48:39.019Z,76.17
2019-02-06T23:51:09.719Z,80.17
2019-02-06T23:53:40.255Z,84.40
2019-02-06T23:56:10.742Z,74.13
2019-02-06T23:58:41.145Z,78.47
